Time;durP1;ratioP1;P1;durP2;ratioP2;P2;SDS_P1;SDS_P2;PMS_P1;PMS_P2;Temp;Humidity;BMP_temperature;BMP_pressure;BME280_temperature;BME280_humidity;BME280_pressure;Samples;Min_cycle;Max_cycle;Signal;HPM_P1;HPM_P2
2021/10/06 00:01:17;;;;;;;5.38;1.52;;;;;;;10.36;97.19;99522.00;5034822;28;20045;-70
2021/10/06 00:03:44;;;;;;;6.65;1.48;;;;;;;10.35;97.73;99522.94;5034993;28;20041;-70
2021/10/06 00:06:10;;;;;;;4.30;1.23;;;;;;;10.32;97.54;99525.84;5034838;28;20128;-70
2021/10/06 00:08:37;;;;;;;11.52;1.55;;;;;;;10.34;97.74;99523.91;5036032;28;20427;-69
2021/10/06 00:11:04;;;;;;;6.07;1.65;;;;;;;10.32;97.77;99528.50;5035749;28;20049;-70
2021/10/06 00:13:31;;;;;;;5.13;1.35;;;;;;;10.31;97.79;99532.13;5018373;28;20390;-69
2021/10/06 00:15:59;;;;;;;8.75;1.75;;;;;;;10.34;97.65;99526.56;5035925;28;20056;-70
2021/10/06 00:18:26;;;;;;;6.03;1.48;;;;;;;10.32;97.59;99529.38;5035812;28;20053;-69
2021/10/06 00:20:54;;;;;;;9.13;1.42;;;;;;;10.28;97.96;99524.34;5035663;28;20116;-68
2021/10/06 00:23:20;;;;;;;12.02;1.73;;;;;;;10.27;97.88;99535.97;5035448;28;20045;-70
2021/10/06 00:25:47;;;;;;;8.60;1.38;;;;;;;10.31;97.60;99534.81;5034484;28;20138;-68
2021/10/06 00:28:14;;;;;;;5.28;1.30;;;;;;;10.27;97.81;99527.97;5035708;28;20046;-69
2021/10/06 00:30:41;;;;;;;11.55;2.00;;;;;;;10.25;97.84;99535.22;5053836;28;20414;-69
2021/10/06 00:33:08;;;;;;;5.65;1.48;;;;;;;10.21;98.18;99528.41;5037883;28;20462;-68
2021/10/06 00:35:34;;;;;;;8.52;1.75;;;;;;;10.22;98.14;99543.44;5055337;28;20085;-69
2021/10/06 00:38:01;;;;;;;6.43;1.25;;;;;;;10.25;98.24;99545.91;5057353;28;20106;-70
2021/10/06 00:40:28;;;;;;;8.05;1.50;;;;;;;10.24;97.88;99544.19;5056844;28;20088;-71
2021/10/06 00:42:55;;;;;;;13.40;1.30;;;;;;;10.24;98.29;99557.53;5056432;28;20041;-70
2021/10/06 00:45:22;;;;;;;11.85;1.83;;;;;;;10.24;98.28;99562.88;5034894;28;20052;-70
2021/10/06 00:47:48;;;;;;;9.13;1.25;;;;;;;10.29;98.12;99568.72;5050205;28;20094;-70
2021/10/06 00:50:15;;;;;;;9.70;1.75;;;;;;;10.35;97.71;99562.94;5054923;28;20064;-70
2021/10/06 00:52:45;;;;;;;7.65;1.35;;;;;;;10.43;97.49;99566.00;5053822;28;20068;-70
2021/10/06 00:55:13;;;;;;;8.23;1.40;;;;;;;10.50;97.09;99573.56;5054916;28;20041;-69
2021/10/06 00:57:40;;;;;;;6.38;1.92;;;;;;;10.52;96.78;99568.97;5054943;28;20049;-69
2021/10/06 01:00:09;;;;;;;9.15;2.25;;;;;;;10.54;96.94;99572.38;5055162;28;20052;-68
2021/10/06 01:02:36;;;;;;;7.75;1.90;;;;;;;10.56;96.81;99573.09;5054543;28;20444;-69
2021/10/06 01:05:06;;;;;;;12.00;1.95;;;;;;;10.63;96.30;99570.88;5054891;28;20053;-69
2021/10/06 01:07:38;;;;;;;11.63;1.70;;;;;;;10.64;96.66;99570.78;5054253;28;20382;-69
2021/10/06 01:10:08;;;;;;;8.73;1.30;;;;;;;10.68;96.07;99590.94;5055019;28;20065;-69
2021/10/06 01:12:35;;;;;;;8.20;1.40;;;;;;;10.78;95.63;99585.78;5054802;28;20071;-68
2021/10/06 01:15:07;;;;;;;7.18;1.70;;;;;;;10.71;96.25;99576.50;5053521;28;20268;-68
2021/10/06 01:17:34;;;;;;;7.05;1.85;;;;;;;10.76;96.06;99584.19;5053722;28;20055;-68
2021/10/06 01:20:04;;;;;;;8.23;1.33;;;;;;;10.79;95.28;99573.31;5060482;28;20128;-69
2021/10/06 01:22:30;;;;;;;15.77;3.13;;;;;;;10.75;95.02;99577.16;5021195;28;20047;-69
2021/10/06 01:25:00;;;;;;;6.95;1.52;;;;;;;10.79;94.66;99584.81;5054681;28;20422;-69
2021/10/06 01:27:27;;;;;;;9.05;1.65;;;;;;;10.75;95.56;99590.50;5053464;28;20059;-69
2021/10/06 01:29:54;;;;;;;10.80;1.50;;;;;;;10.69;95.42;99581.94;5041577;28;20053;-69
2021/10/06 01:32:21;;;;;;;14.73;1.70;;;;;;;10.67;95.81;99586.56;5033506;28;20053;-69
2021/10/06 01:35:01;;;;;;;10.25;1.73;;;;;;;10.59;96.31;99583.59;5041447;28;20037;-69
2021/10/06 01:37:28;;;;;;;9.05;2.33;;;;;;;10.54;96.13;99575.03;5054640;28;20045;-68
2021/10/06 01:39:55;;;;;;;8.75;1.98;;;;;;;10.50;96.37;99585.06;5053392;28;20045;-69
2021/10/06 01:42:21;;;;;;;10.60;1.98;;;;;;;10.46;96.32;99591.56;5053533;28;20041;-68
2021/10/06 01:44:48;;;;;;;9.18;2.05;;;;;;;10.44;96.70;99586.38;5052952;28;20060;-69
2021/10/06 01:47:23;;;;;;;9.40;1.48;;;;;;;10.40;97.06;99592.00;5053610;28;20090;-70
2021/10/06 01:49:51;;;;;;;12.55;1.77;;;;;;;10.37;97.12;99584.19;5046894;28;20057;-69
2021/10/06 01:52:20;;;;;;;11.95;1.77;;;;;;;10.31;96.85;99585.50;5054554;28;20338;-69
2021/10/06 01:54:47;;;;;;;7.50;1.60;;;;;;;10.32;96.57;99592.53;5049068;28;20045;-69
2021/10/06 01:57:14;;;;;;;12.60;1.80;;;;;;;10.30;96.60;99583.78;5047681;28;20056;-69
2021/10/06 01:59:44;;;;;;;11.75;1.70;;;;;;;10.34;97.17;99598.59;5036812;28;20071;-70
2021/10/06 02:02:10;;;;;;;10.40;1.65;;;;;;;10.37;96.50;99592.19;5054517;28;20037;-68
2021/10/06 02:04:39;;;;;;;9.52;1.80;;;;;;;10.39;96.67;99601.81;5052803;28;20501;-69
2021/10/06 02:07:05;;;;;;;8.25;1.58;;;;;;;10.36;96.21;99602.03;5054427;28;20140;-68
2021/10/06 02:09:32;;;;;;;9.20;1.85;;;;;;;10.37;96.68;99603.72;5054273;28;20430;-71
2021/10/06 02:11:59;;;;;;;10.13;2.20;;;;;;;10.28;96.65;99585.69;5054125;28;20033;-70
2021/10/06 02:14:26;;;;;;;9.18;1.77;;;;;;;10.23;96.88;99594.00;5055677;28;20049;-70
2021/10/06 02:16:52;;;;;;;8.32;1.25;;;;;;;10.30;96.71;99599.78;5056940;28;20430;-70
2021/10/06 02:19:19;;;;;;;11.65;1.98;;;;;;;10.24;96.54;99594.88;5057872;28;20065;-70
2021/10/06 02:21:46;;;;;;;11.07;1.88;;;;;;;10.24;96.71;99603.72;5057755;28;20056;-70
2021/10/06 02:24:13;;;;;;;13.27;1.77;;;;;;;10.22;96.56;99604.78;5056684;28;20271;-70
2021/10/06 02:26:40;;;;;;;9.40;1.42;;;;;;;10.23;97.06;99601.16;5057046;28;20037;-71
2021/10/06 02:29:06;;;;;;;9.98;2.45;;;;;;;10.23;96.65;99595.84;5056371;28;20442;-71
2021/10/06 02:31:33;;;;;;;4.65;1.20;;;;;;;10.23;95.91;99604.66;5056773;28;20552;-70
2021/10/06 02:34:00;;;;;;;12.73;1.98;;;;;;;10.25;95.68;99594.75;5057526;28;20041;-70
2021/10/06 02:36:26;;;;;;;7.45;1.55;;;;;;;10.21;95.93;99597.72;5051125;28;20056;-70
2021/10/06 02:38:53;;;;;;;9.68;1.60;;;;;;;10.20;96.34;99599.56;5054869;28;20354;-70
2021/10/06 02:41:20;;;;;;;8.10;1.20;;;;;;;10.10;96.64;99586.00;5056832;28;20045;-69
2021/10/06 02:43:47;;;;;;;10.40;1.52;;;;;;;10.14;96.84;99602.66;5056301;28;20055;-70
2021/10/06 02:46:14;;;;;;;8.15;1.48;;;;;;;10.14;96.00;99595.47;5037442;28;20439;-70
2021/10/06 02:48:40;;;;;;;12.95;2.72;;;;;;;10.13;96.38;99607.13;5042117;28;20174;-70
2021/10/06 02:51:07;;;;;;;11.23;1.65;;;;;;;10.15;95.82;99607.84;5056926;28;20422;-70
2021/10/06 02:53:34;;;;;;;14.20;2.83;;;;;;;10.21;95.55;99606.59;5056898;28;20036;-71
2021/10/06 02:56:01;;;;;;;7.18;1.33;;;;;;;10.22;95.24;99610.97;5056697;28;20063;-70
2021/10/06 02:58:27;;;;;;;7.38;1.45;;;;;;;10.24;95.35;99605.53;5054827;28;20129;-69
2021/10/06 03:00:54;;;;;;;7.70;1.77;;;;;;;10.23;95.02;99606.50;5055562;28;20056;-69
2021/10/06 03:03:21;;;;;;;16.77;2.42;;;;;;;10.27;95.09;99610.66;5056694;28;20113;-70
2021/10/06 03:05:48;;;;;;;7.47;1.40;;;;;;;10.31;94.82;99617.50;5056607;28;20040;-70
2021/10/06 03:08:15;;;;;;;4.93;1.30;;;;;;;10.37;94.71;99633.06;5053855;28;20041;-69
2021/10/06 03:10:42;;;;;;;7.47;1.40;;;;;;;10.33;94.33;99619.09;5055283;28;20349;-70
2021/10/06 03:13:08;;;;;;;9.65;1.60;;;;;;;10.35;94.05;99626.97;5056355;28;20098;-70
2021/10/06 03:15:35;;;;;;;13.80;2.47;;;;;;;10.35;94.65;99618.97;5052641;28;20072;-70
2021/10/06 03:18:02;;;;;;;13.63;1.50;;;;;;;10.38;93.97;99618.78;5055993;28;20401;-70
2021/10/06 03:20:29;;;;;;;10.48;1.60;;;;;;;10.37;93.91;99608.19;5056011;28;20052;-70
2021/10/06 03:22:55;;;;;;;8.50;1.95;;;;;;;10.48;93.72;99618.16;5056774;28;20051;-70
2021/10/06 03:25:23;;;;;;;11.10;1.70;;;;;;;10.43;93.97;99611.34;5056247;28;20363;-70
2021/10/06 03:27:50;;;;;;;11.02;1.90;;;;;;;10.48;93.59;99620.81;5055487;28;20147;-70
2021/10/06 03:30:16;;;;;;;10.45;1.73;;;;;;;10.45;93.91;99612.09;5056442;28;20087;-69
2021/10/06 03:32:43;;;;;;;5.25;1.30;;;;;;;10.49;94.15;99626.06;5054661;28;20056;-69
2021/10/06 03:35:10;;;;;;;5.85;1.45;;;;;;;10.51;93.37;99620.63;5051598;28;20040;-69
2021/10/06 03:37:37;;;;;;;9.50;1.88;;;;;;;10.52;94.08;99625.84;5055946;28;20056;-70
2021/10/06 03:40:08;;;;;;;7.45;1.50;;;;;;;10.53;93.40;99624.91;5055795;28;20094;-70
2021/10/06 03:42:35;;;;;;;9.98;1.50;;;;;;;10.52;93.67;99625.84;5056334;28;20075;-69
2021/10/06 03:45:02;;;;;;;7.43;1.38;;;;;;;10.54;93.33;99639.94;5054469;28;20401;-71
2021/10/06 03:47:29;;;;;;;11.00;1.30;;;;;;;10.58;92.72;99645.94;5054181;28;20052;-70
2021/10/06 03:49:56;;;;;;;10.93;1.80;;;;;;;10.57;92.73;99647.72;5054826;28;20057;-69
2021/10/06 03:52:24;;;;;;;6.85;1.50;;;;;;;10.54;93.36;99642.63;5051868;28;20049;-71
2021/10/06 03:54:50;;;;;;;8.85;1.40;;;;;;;10.55;93.61;99649.66;5054179;28;20051;-71
2021/10/06 03:57:17;;;;;;;5.85;1.40;;;;;;;10.58;92.82;99648.59;5053792;28;20049;-69
2021/10/06 03:59:44;;;;;;;10.98;1.52;;;;;;;10.52;93.86;99638.34;5052714;28;20040;-69
2021/10/06 04:02:11;;;;;;;10.43;1.67;;;;;;;10.49;93.21;99638.53;5036690;28;20037;-69
2021/10/06 04:04:38;;;;;;;4.65;1.00;;;;;;;10.44;92.96;99637.06;5054549;28;20045;-69
2021/10/06 04:07:05;;;;;;;6.80;1.50;;;;;;;10.39;93.38;99643.63;5020959;28;20076;-69
2021/10/06 04:09:32;;;;;;;10.25;1.60;;;;;;;10.35;93.41;99632.31;5054991;28;20055;-69
2021/10/06 04:11:59;;;;;;;10.35;1.45;;;;;;;10.31;93.09;99641.50;5054316;28;20045;-69
2021/10/06 04:14:25;;;;;;;8.90;1.40;;;;;;;10.34;93.22;99649.28;5053762;28;20060;-69
2021/10/06 04:16:52;;;;;;;11.25;2.15;;;;;;;10.34;93.29;99651.94;5054679;28;20045;-70
2021/10/06 04:19:19;;;;;;;5.75;1.00;;;;;;;10.45;92.05;99654.78;5054933;28;20033;-70
2021/10/06 04:21:46;;;;;;;3.55;1.13;;;;;;;10.44;93.24;99668.22;5054873;28;20504;-71
2021/10/06 04:24:13;;;;;;;8.25;1.08;;;;;;;10.44;93.27;99669.06;5053813;28;20342;-70
2021/10/06 04:26:39;;;;;;;8.05;1.42;;;;;;;10.43;92.91;99667.38;5053809;28;20343;-70
2021/10/06 04:29:06;;;;;;;9.63;1.40;;;;;;;10.44;93.20;99681.56;5041763;28;20052;-69
2021/10/06 04:31:33;;;;;;;8.70;1.40;;;;;;;10.45;93.14;99668.13;5051674;28;20351;-69
2021/10/06 04:34:00;;;;;;;6.15;1.25;;;;;;;10.49;94.07;99683.91;5055204;28;20044;-70
2021/10/06 04:36:28;;;;;;;8.02;1.58;;;;;;;10.52;92.31;99684.53;5053353;28;20057;-70
2021/10/06 04:38:55;;;;;;;8.30;1.00;;;;;;;10.56;91.56;99683.38;5054974;28;20057;-69
2021/10/06 04:41:21;;;;;;;7.20;1.52;;;;;;;10.55;92.39;99687.00;5054900;28;20044;-70
2021/10/06 04:43:48;;;;;;;10.93;2.25;;;;;;;10.50;91.97;99688.31;5055089;28;20045;-69
2021/10/06 04:46:18;;;;;;;12.10;1.50;;;;;;;10.54;92.24;99681.78;5047546;28;20374;-70
2021/10/06 04:48:48;;;;;;;10.33;1.87;;;;;;;10.62;91.99;99690.09;5043278;28;20049;-70
2021/10/06 04:51:15;;;;;;;8.10;1.52;;;;;;;10.59;91.66;99701.00;5047404;28;20171;-70
2021/10/06 04:53:42;;;;;;;7.18;1.65;;;;;;;10.53;91.24;99694.28;5054839;28;20415;-69
2021/10/06 04:56:09;;;;;;;9.13;1.15;;;;;;;10.63;90.97;99696.31;5054070;28;20045;-69
2021/10/06 04:58:35;;;;;;;11.30;1.77;;;;;;;10.59;91.62;99691.16;5034946;28;20072;-70
2021/10/06 05:01:03;;;;;;;6.20;1.70;;;;;;;10.58;91.41;99685.94;5037434;28;20426;-70
2021/10/06 05:03:30;;;;;;;13.98;2.13;;;;;;;10.59;91.11;99679.66;5042653;28;20041;-70
2021/10/06 05:05:57;;;;;;;7.53;1.20;;;;;;;10.61;90.15;99691.06;5038943;28;20095;-69
2021/10/06 05:08:24;;;;;;;7.97;1.20;;;;;;;10.58;90.31;99696.63;5054409;28;20045;-69
2021/10/06 05:10:51;;;;;;;7.65;1.25;;;;;;;10.59;90.20;99693.00;5055321;28;20048;-69
2021/10/06 05:13:17;;;;;;;9.80;1.40;;;;;;;10.63;90.03;99694.50;5054655;28;20422;-68
2021/10/06 05:15:44;;;;;;;9.68;1.73;;;;;;;10.64;89.17;99701.53;5053146;28;20438;-70
2021/10/06 05:18:11;;;;;;;10.73;1.20;;;;;;;10.63;89.36;99710.50;5053328;28;20525;-69
2021/10/06 05:20:38;;;;;;;10.27;1.30;;;;;;;10.67;89.01;99716.50;5053364;28;20518;-69
2021/10/06 05:23:05;;;;;;;9.00;1.45;;;;;;;10.71;87.94;99712.63;5053888;28;20037;-69
2021/10/06 05:25:32;;;;;;;6.30;1.33;;;;;;;10.71;87.77;99724.19;5054039;28;20044;-70
2021/10/06 05:27:59;;;;;;;7.07;1.45;;;;;;;10.72;88.28;99733.91;5053537;28;20053;-71
2021/10/06 05:30:26;;;;;;;5.47;1.30;;;;;;;10.73;88.32;99721.38;5040994;28;20067;-69
2021/10/06 05:32:53;;;;;;;6.78;1.58;;;;;;;10.70;88.42;99722.47;5054109;28;20128;-68
2021/10/06 05:35:21;;;;;;;13.32;3.15;;;;;;;10.67;87.68;99725.34;5043802;28;20045;-70
2021/10/06 05:37:48;;;;;;;10.20;1.30;;;;;;;10.71;87.67;99707.31;5043094;28;20044;-70
2021/10/06 05:40:16;;;;;;;8.13;1.00;;;;;;;10.67;88.33;99728.00;5052525;28;20037;-71
2021/10/06 05:42:43;;;;;;;9.35;1.77;;;;;;;10.66;88.64;99736.97;5053295;28;20037;-71
2021/10/06 05:45:10;;;;;;;10.82;1.40;;;;;;;10.59;89.70;99727.69;5052026;28;20037;-73
2021/10/06 05:47:37;;;;;;;5.78;1.15;;;;;;;10.49;90.74;99740.78;5051908;28;20037;-71
2021/10/06 05:50:05;;;;;;;5.93;1.50;;;;;;;10.36;91.86;99729.22;5056081;28;20449;-73
2021/10/06 05:52:34;;;;;;;8.23;1.58;;;;;;;10.35;91.41;99733.69;5053605;28;20046;-70
2021/10/06 05:55:01;;;;;;;7.75;1.40;;;;;;;10.32;91.95;99729.44;5056234;28;20045;-71
2021/10/06 05:57:28;;;;;;;5.45;1.42;;;;;;;10.28;92.46;99743.03;5055495;28;20044;-73
2021/10/06 05:59:56;;;;;;;10.75;1.77;;;;;;;10.25;92.19;99744.09;5055981;28;20045;-71
2021/10/06 06:02:23;;;;;;;8.07;1.23;;;;;;;10.23;93.01;99746.03;5056199;28;20063;-73
2021/10/06 06:04:51;;;;;;;10.10;1.40;;;;;;;10.27;92.15;99747.53;5056261;28;20080;-71
2021/10/06 06:07:18;;;;;;;5.43;1.70;;;;;;;10.17;93.15;99730.44;5056869;28;20072;-73
2021/10/06 06:09:44;;;;;;;11.05;1.50;;;;;;;10.22;92.22;99748.78;5053249;28;20435;-76
2021/10/06 06:12:11;;;;;;;9.18;1.25;;;;;;;10.19;93.98;99765.88;5036807;28;20339;-71
2021/10/06 06:14:39;;;;;;;12.10;1.50;;;;;;;10.12;95.83;99765.41;5072816;28;20052;-71
2021/10/06 06:17:09;;;;;;;9.60;1.25;;;;;;;10.00;97.07;99760.88;5058606;28;20051;-71
2021/10/06 06:19:36;;;;;;;5.93;1.30;;;;;;;9.88;98.65;99778.53;5057388;28;20044;-72
2021/10/06 06:22:03;;;;;;;6.43;1.55;;;;;;;9.84;99.31;99775.19;5055237;28;20036;-72
2021/10/06 06:24:30;;;;;;;9.75;1.65;;;;;;;9.76;100.00;99772.19;5055847;28;20041;-75
2021/10/06 06:26:58;;;;;;;5.82;1.27;;;;;;;9.76;100.00;99772.19;5055733;28;20064;-74
2021/10/06 06:29:25;;;;;;;13.35;1.20;;;;;;;9.76;100.00;99777.50;5056507;28;20045;-73
2021/10/06 06:31:52;;;;;;;8.75;1.40;;;;;;;9.68;100.00;99769.13;5053112;28;20442;-75
2021/10/06 06:34:19;;;;;;;10.60;1.48;;;;;;;9.64;100.00;99773.78;5053350;28;20041;-73
2021/10/06 06:36:46;;;;;;;8.30;1.52;;;;;;;9.61;100.00;99774.88;5045623;28;20427;-71
2021/10/06 06:39:12;;;;;;;8.38;1.65;;;;;;;9.59;100.00;99775.91;5048712;28;20049;-72
2021/10/06 06:41:39;;;;;;;9.25;1.45;;;;;;;9.60;100.00;99775.78;5042538;28;20434;-73
2021/10/06 06:44:06;;;;;;;11.10;1.65;;;;;;;9.55;100.00;99772.59;5048684;28;20428;-70
2021/10/06 06:46:33;;;;;;;9.80;1.38;;;;;;;9.48;100.00;99752.63;5055708;28;20120;-72
2021/10/06 06:49:00;;;;;;;7.40;1.42;;;;;;;9.55;100.00;99761.94;5047357;28;20058;-71
2021/10/06 06:51:27;;;;;;;17.10;1.90;;;;;;;9.51;100.00;99766.59;5047183;28;20429;-70
2021/10/06 06:53:55;;;;;;;9.10;1.58;;;;;;;9.48;100.00;99757.94;5047801;28;20042;-70
2021/10/06 06:56:22;;;;;;;17.15;2.33;;;;;;;9.49;100.00;99763.16;5046274;28;20053;-73
2021/10/06 06:58:49;;;;;;;13.32;2.08;;;;;;;9.53;100.00;99762.97;5046178;28;20544;-71
2021/10/06 07:01:17;;;;;;;8.65;1.60;;;;;;;9.47;100.00;99761.53;5047413;28;20044;-68
2021/10/06 07:03:44;;;;;;;12.15;1.55;;;;;;;9.50;100.00;99778.19;5044678;28;20426;-69
2021/10/06 07:06:11;;;;;;;10.57;2.17;;;;;;;9.50;100.00;99782.69;5052150;28;20041;-71
2021/10/06 07:08:38;;;;;;;14.40;2.08;;;;;;;9.48;100.00;99768.59;5052296;28;20091;-70
2021/10/06 07:11:05;;;;;;;13.27;1.48;;;;;;;9.54;100.00;99770.88;5050506;28;20116;-69
2021/10/06 07:13:31;;;;;;;9.85;1.73;;;;;;;9.53;100.00;99782.47;5044249;28;20041;-69
2021/10/06 07:15:59;;;;;;;6.43;1.58;;;;;;;9.55;100.00;99771.72;5052984;28;20053;-69
2021/10/06 07:18:26;;;;;;;9.70;1.70;;;;;;;9.63;100.00;99785.41;5049605;28;20048;-69
2021/10/06 07:20:52;;;;;;;8.90;2.20;;;;;;;9.57;100.00;99770.69;5055272;28;20049;-70
2021/10/06 07:23:22;;;;;;;12.90;2.70;;;;;;;9.69;100.00;99794.84;5032253;28;20044;-71
2021/10/06 07:25:49;;;;;;;9.75;1.75;;;;;;;9.70;100.00;99778.72;5048133;28;20336;-72
2021/10/06 07:28:16;;;;;;;9.52;2.00;;;;;;;9.70;100.00;99784.06;5055609;28;20393;-70
2021/10/06 07:30:43;;;;;;;11.52;1.77;;;;;;;9.72;100.00;99781.31;5054056;28;20040;-70
2021/10/06 07:33:09;;;;;;;9.75;1.92;;;;;;;9.73;100.00;99786.56;5054881;28;20086;-68
2021/10/06 07:35:36;;;;;;;7.43;1.73;;;;;;;9.71;100.00;99785.81;5050574;28;20048;-73
2021/10/06 07:38:03;;;;;;;10.30;1.55;;;;;;;9.76;100.00;99788.16;5055334;28;20401;-75
2021/10/06 07:40:30;;;;;;;9.43;1.58;;;;;;;9.77;100.00;99785.38;5052911;28;20422;-73
2021/10/06 07:42:57;;;;;;;8.38;1.52;;;;;;;9.82;100.00;99785.13;5055365;28;20041;-71
2021/10/06 07:45:24;;;;;;;11.60;2.42;;;;;;;9.83;100.00;99802.81;5050561;28;20049;-70
2021/10/06 07:47:51;;;;;;;9.82;1.70;;;;;;;9.89;100.00;99790.91;5055273;28;20041;-71
2021/10/06 07:50:18;;;;;;;12.60;1.50;;;;;;;9.88;100.00;99797.19;5051994;28;20053;-77
2021/10/06 07:52:44;;;;;;;13.88;2.17;;;;;;;9.96;100.00;99802.03;5053454;28;20048;-75
2021/10/06 07:55:11;;;;;;;9.02;1.40;;;;;;;10.01;100.00;99799.91;5052111;28;20120;-71
2021/10/06 07:57:39;;;;;;;4.68;1.08;;;;;;;10.04;100.00;99810.38;5054157;28;20049;-72
2021/10/06 08:00:08;;;;;;;8.82;1.50;;;;;;;10.08;100.00;99803.03;5052637;28;20040;-71
2021/10/06 08:02:37;;;;;;;7.63;1.45;;;;;;;10.12;100.00;99808.06;5052896;28;20386;-68
2021/10/06 08:05:05;;;;;;;6.97;1.38;;;;;;;10.16;100.00;99808.72;5050404;28;20056;-71
2021/10/06 08:07:32;;;;;;;8.88;1.33;;;;;;;10.21;100.00;99817.28;5050148;28;20048;-71
2021/10/06 08:09:59;;;;;;;6.30;1.55;;;;;;;10.30;100.00;99805.19;5049835;28;20049;-71
2021/10/06 08:12:26;;;;;;;10.57;2.20;;;;;;;10.32;100.00;99804.13;5051288;28;20045;-71
2021/10/06 08:14:53;;;;;;;6.18;1.30;;;;;;;10.42;99.07;99814.16;5053626;28;20041;-71
2021/10/06 08:17:20;;;;;;;6.25;1.55;;;;;;;10.19;98.74;99809.38;5052810;28;20090;-70
2021/10/06 08:19:46;;;;;;;8.15;1.50;;;;;;;10.26;100.00;99820.53;5052388;28;20068;-70
2021/10/06 08:22:14;;;;;;;6.43;1.17;;;;;;;10.19;100.00;99836.06;5053316;28;20040;-70
2021/10/06 08:24:41;;;;;;;10.80;1.88;;;;;;;10.12;100.00;99840.06;5050754;28;20048;-70
2021/10/06 08:27:11;;;;;;;4.25;1.10;;;;;;;10.05;100.00;99828.97;5052076;28;20036;-72
2021/10/06 08:29:38;;;;;;;9.13;1.27;;;;;;;10.05;100.00;99849.44;5049319;28;20077;-70
2021/10/06 08:32:05;;;;;;;7.18;1.58;;;;;;;10.00;100.00;99852.38;5052599;28;20041;-73
2021/10/06 08:34:32;;;;;;;7.00;1.58;;;;;;;9.92;100.00;99850.19;5041803;28;20038;-71
2021/10/06 08:36:59;;;;;;;6.82;1.63;;;;;;;9.88;100.00;99854.03;5017108;28;20049;-74
2021/10/06 08:39:26;;;;;;;5.88;1.38;;;;;;;9.86;100.00;99853.25;5051371;28;20512;-71
2021/10/06 08:41:53;;;;;;;6.72;1.48;;;;;;;9.83;100.00;99855.25;5052904;28;20052;-74
2021/10/06 08:44:21;;;;;;;14.15;1.63;;;;;;;9.73;100.00;99844.31;5037188;28;20044;-75
2021/10/06 08:46:49;;;;;;;9.70;1.55;;;;;;;9.79;100.00;99865.25;5054792;28;20091;-71
2021/10/06 08:49:16;;;;;;;3.60;1.40;;;;;;;9.79;100.00;99859.91;5037034;28;20353;-73
2021/10/06 08:51:43;;;;;;;9.55;1.50;;;;;;;9.83;100.00;99864.13;5052372;28;20057;-74
2021/10/06 08:54:10;;;;;;;4.57;1.10;;;;;;;9.88;100.00;99862.03;5042617;28;20091;-73
2021/10/06 08:56:37;;;;;;;5.28;1.35;;;;;;;9.86;100.00;99866.56;5043564;28;20052;-73
2021/10/06 08:59:04;;;;;;;9.98;1.52;;;;;;;9.86;100.00;99877.25;5047096;28;20074;-72
2021/10/06 09:01:31;;;;;;;11.88;1.60;;;;;;;9.86;100.00;99868.41;5051932;28;20111;-72
2021/10/06 09:04:03;;;;;;;5.32;1.50;;;;;;;9.94;100.00;99873.22;5049565;28;20093;-73
2021/10/06 09:06:41;;;;;;;4.95;1.42;;;;;;;9.92;100.00;99881.34;5044378;28;20435;-73
2021/10/06 09:09:23;;;;;;;10.20;2.03;;;;;;;9.86;100.00;99887.91;5048605;28;20128;-74
2021/10/06 09:11:54;;;;;;;7.13;1.67;;;;;;;9.79;100.00;99886.56;5040769;28;20421;-74
2021/10/06 09:14:22;;;;;;;7.00;1.77;;;;;;;9.74;100.00;99900.19;5036657;28;20064;-72
2021/10/06 09:17:09;;;;;;;3.75;1.52;;;;;;;9.76;100.00;99895.63;5032534;28;20080;-72
2021/10/06 09:19:45;;;;;;;7.88;1.70;;;;;;;9.75;100.00;99895.72;5045879;28;20048;-71
2021/10/06 09:22:32;;;;;;;8.48;1.88;;;;;;;9.77;100.00;99889.31;5051918;28;20381;-73
2021/10/06 09:24:58;;;;;;;8.43;1.70;;;;;;;9.76;100.00;99892.94;5058698;28;20044;-74
2021/10/06 09:27:32;;;;;;;6.85;1.40;;;;;;;9.78;100.00;99904.41;5056997;28;20044;-70
2021/10/06 09:30:05;;;;;;;7.90;1.80;;;;;;;9.77;100.00;99901.81;5056961;28;20037;-73
2021/10/06 09:32:38;;;;;;;5.65;1.60;;;;;;;9.80;100.00;99895.44;5036132;28;20050;-77
2021/10/06 09:35:13;;;;;;;4.88;1.52;;;;;;;9.84;100.00;99911.16;5054666;28;20150;-76
2021/10/06 09:37:46;;;;;;;6.13;1.67;;;;;;;9.80;100.00;99914.09;5045842;28;20045;-76
2021/10/06 09:40:14;;;;;;;12.25;1.92;;;;;;;9.72;100.00;99901.22;5055939;28;20047;-75
2021/10/06 09:42:47;;;;;;;10.60;2.20;;;;;;;9.70;100.00;99908.47;5056822;28;20037;-74
2021/10/06 09:45:27;;;;;;;8.50;1.77;;;;;;;9.77;100.00;99920.47;5056010;28;20060;-75
2021/10/06 09:48:04;;;;;;;5.32;1.50;;;;;;;9.78;100.00;99922.19;5068812;28;20049;-77
2021/10/06 09:50:33;;;;;;;7.28;1.92;;;;;;;9.84;100.00;99928.94;5051257;28;20072;-75
2021/10/06 09:53:10;;;;;;;5.18;2.00;;;;;;;9.89;100.00;99929.50;5054339;28;20043;-74
2021/10/06 09:55:37;;;;;;;8.10;1.77;;;;;;;9.85;100.00;99934.19;5054455;28;20041;-71
2021/10/06 09:58:04;;;;;;;7.03;1.73;;;;;;;9.89;100.00;99933.03;5051122;28;20091;-70
2021/10/06 10:00:32;;;;;;;5.68;1.50;;;;;;;9.88;100.00;99928.66;5055534;28;20040;-69
2021/10/06 10:02:59;;;;;;;6.50;1.85;;;;;;;9.97;100.00;99950.38;5052259;28;20050;-70
2021/10/06 10:05:26;;;;;;;6.80;1.67;;;;;;;9.99;100.00;99937.78;5052646;28;20040;-74
2021/10/06 10:07:53;;;;;;;7.25;1.80;;;;;;;10.08;100.00;99947.03;5038932;28;20052;-74
2021/10/06 10:10:21;;;;;;;6.15;2.92;;;;;;;10.11;100.00;99944.16;5049105;28;20051;-73
2021/10/06 10:12:49;;;;;;;5.72;1.88;;;;;;;10.08;100.00;99953.22;5057866;28;20060;-76
2021/10/06 10:15:19;;;;;;;7.43;1.83;;;;;;;10.05;100.00;99954.28;5055471;28;20037;-72
2021/10/06 10:17:55;;;;;;;3.97;2.10;;;;;;;10.04;100.00;99949.88;5056487;28;20045;-77
2021/10/06 10:20:23;;;;;;;9.75;2.20;;;;;;;10.08;100.00;99961.22;5057106;28;20045;-75
2021/10/06 10:22:55;;;;;;;4.47;1.38;;;;;;;10.02;100.00;99956.28;5057123;28;20079;-74
2021/10/06 10:25:29;;;;;;;8.57;1.80;;;;;;;10.07;100.00;99962.16;5055053;28;20029;-73
2021/10/06 10:28:04;;;;;;;8.60;2.17;;;;;;;10.05;100.00;99974.75;5056396;28;20052;-77
2021/10/06 10:30:32;;;;;;;5.18;1.77;;;;;;;10.04;100.00;99979.22;5056305;28;20044;-74
2021/10/06 10:33:04;;;;;;;5.32;1.92;;;;;;;10.06;100.00;99968.47;5051168;28;20041;-75
2021/10/06 10:35:39;;;;;;;4.82;1.65;;;;;;;10.08;100.00;99982.53;5055817;28;20040;-74
2021/10/06 10:38:08;;;;;;;5.82;1.90;;;;;;;10.12;100.00;99978.75;5045943;28;20414;-74
2021/10/06 10:40:36;;;;;;;3.45;1.90;;;;;;;10.16;100.00;99982.94;5051821;28;20090;-75
2021/10/06 10:43:18;;;;;;;4.05;1.67;;;;;;;10.12;100.00;99977.88;5055829;28;20127;-78
2021/10/06 10:45:52;;;;;;;6.03;1.60;;;;;;;10.25;100.00;99994.00;5053165;28;20040;-76
2021/10/06 10:48:24;;;;;;;5.35;1.80;;;;;;;10.34;100.00;99988.06;5051045;28;20048;-77
2021/10/06 10:50:51;;;;;;;5.22;1.98;;;;;;;10.37;100.00;100003.03;5056916;28;20053;-76
2021/10/06 10:53:42;;;;;;;5.40;1.80;;;;;;;10.36;100.00;99999.53;5053815;28;20094;-75
2021/10/06 10:56:11;;;;;;;7.65;2.00;;;;;;;10.42;100.00;100001.81;5052475;28;20032;-75
2021/10/06 10:58:41;;;;;;;5.65;1.85;;;;;;;10.53;100.00;100008.28;5072116;28;20051;-72
2021/10/06 11:01:13;;;;;;;4.60;1.60;;;;;;;10.47;100.00;100012.22;5051554;28;20049;-71
2021/10/06 11:04:08;;;;;;;6.13;1.55;;;;;;;10.51;100.00;100015.53;5054470;28;20047;-73
2021/10/06 11:06:38;;;;;;;5.03;2.15;;;;;;;10.50;100.00;100020.00;5044633;28;20041;-72
2021/10/06 11:09:29;;;;;;;4.70;1.63;;;;;;;10.49;100.00;100020.97;5053956;28;20044;-73
2021/10/06 11:12:05;;;;;;;4.82;1.60;;;;;;;10.52;100.00;100022.59;5041627;28;20103;-72
2021/10/06 11:14:43;;;;;;;7.30;1.60;;;;;;;10.61;100.00;100027.34;5051459;28;20037;-72
2021/10/06 11:17:15;;;;;;;5.15;1.70;;;;;;;10.54;100.00;100023.34;5046042;28;20064;-72
2021/10/06 11:19:42;;;;;;;6.90;1.77;;;;;;;10.47;100.00;100028.22;5055836;28;20442;-73
2021/10/06 11:22:38;;;;;;;6.18;2.03;;;;;;;10.50;100.00;100032.50;5055920;28;20135;-73
2021/10/06 11:25:09;;;;;;;5.07;1.77;;;;;;;10.50;100.00;100044.03;5052977;28;20041;-72
2021/10/06 11:27:47;;;;;;;5.63;1.83;;;;;;;10.51;100.00;100036.88;5053474;28;20139;-72
2021/10/06 11:30:17;;;;;;;6.95;1.80;;;;;;;10.52;100.00;100035.94;5056042;28;20338;-71
2021/10/06 11:32:49;;;;;;;6.45;1.63;;;;;;;10.49;100.00;100041.44;5056035;28;20037;-70
2021/10/06 11:35:17;;;;;;;5.32;1.80;;;;;;;10.56;100.00;100040.09;5032007;28;20047;-71